sensor_id;sensor_type;location;lat;lon;timestamp;P1;durP1;ratioP1;P2;durP2;ratioP2
34775;SDS011;20989;52.566;13.346;2022-07-24T00:01:47;0.50;;;0.50;;
34775;SDS011;20989;52.566;13.346;2022-07-24T00:04:48;0.63;;;0.63;;
34775;SDS011;20989;52.566;13.346;2022-07-24T00:07:49;0.57;;;0.57;;
34775;SDS011;20989;52.566;13.346;2022-07-24T00:10:49;1.23;;;0.70;;
34775;SDS011;20989;52.566;13.346;2022-07-24T00:13:50;0.50;;;0.50;;
34775;SDS011;20989;52.566;13.346;2022-07-24T00:16:51;0.40;;;0.40;;
34775;SDS011;20989;52.566;13.346;2022-07-24T00:19:52;0.50;;;0.40;;
34775;SDS011;20989;52.566;13.346;2022-07-24T00:22:52;0.30;;;0.30;;
34775;SDS011;20989;52.566;13.346;2022-07-24T00:25:53;0.50;;;0.50;;
34775;SDS011;20989;52.566;13.346;2022-07-24T00:28:54;0.52;;;0.52;;
34775;SDS011;20989;52.566;13.346;2022-07-24T00:31:55;0.70;;;0.70;;
34775;SDS011;20989;52.566;13.346;2022-07-24T00:34:55;0.50;;;0.50;;
34775;SDS011;20989;52.566;13.346;2022-07-24T00:37:56;0.50;;;0.50;;
34775;SDS011;20989;52.566;13.346;2022-07-24T00:40:57;0.57;;;0.55;;
34775;SDS011;20989;52.566;13.346;2022-07-24T00:47:08;0.52;;;0.50;;
34775;SDS011;20989;52.566;13.346;2022-07-24T00:50:08;0.55;;;0.55;;
34775;SDS011;20989;52.566;13.346;2022-07-24T00:53:10;0.47;;;0.47;;
34775;SDS011;20989;52.566;13.346;2022-07-24T00:56:12;0.57;;;0.57;;
34775;SDS011;20989;52.566;13.346;2022-07-24T00:59:13;0.93;;;0.52;;
34775;SDS011;20989;52.566;13.346;2022-07-24T01:02:15;0.30;;;0.30;;
34775;SDS011;20989;52.566;13.346;2022-07-24T01:05:16;0.60;;;0.60;;
34775;SDS011;20989;52.566;13.346;2022-07-24T01:08:17;0.38;;;0.38;;
34775;SDS011;20989;52.566;13.346;2022-07-24T01:11:19;0.40;;;0.40;;
34775;SDS011;20989;52.566;13.346;2022-07-24T01:14:20;0.50;;;0.50;;
34775;SDS011;20989;52.566;13.346;2022-07-24T01:17:21;0.50;;;0.50;;
34775;SDS011;20989;52.566;13.346;2022-07-24T01:20:21;0.60;;;0.60;;
34775;SDS011;20989;52.566;13.346;2022-07-24T01:23:22;0.30;;;0.30;;
34775;SDS011;20989;52.566;13.346;2022-07-24T01:26:23;0.50;;;0.50;;
34775;SDS011;20989;52.566;13.346;2022-07-24T01:29:24;0.57;;;0.50;;
34775;SDS011;20989;52.566;13.346;2022-07-24T01:32:26;0.60;;;0.60;;
34775;SDS011;20989;52.566;13.346;2022-07-24T01:35:27;0.40;;;0.40;;
34775;SDS011;20989;52.566;13.346;2022-07-24T01:38:28;0.60;;;0.60;;
34775;SDS011;20989;52.566;13.346;2022-07-24T01:41:29;0.55;;;0.50;;
34775;SDS011;20989;52.566;13.346;2022-07-24T01:44:29;0.50;;;0.50;;
34775;SDS011;20989;52.566;13.346;2022-07-24T01:47:30;0.47;;;0.47;;
34775;SDS011;20989;52.566;13.346;2022-07-24T01:50:31;0.52;;;0.50;;
34775;SDS011;20989;52.566;13.346;2022-07-24T01:53:32;0.57;;;0.57;;
34775;SDS011;20989;52.566;13.346;2022-07-24T01:56:33;0.30;;;0.30;;
34775;SDS011;20989;52.566;13.346;2022-07-24T01:59:33;0.40;;;0.40;;
34775;SDS011;20989;52.566;13.346;2022-07-24T02:02:34;0.63;;;0.50;;
34775;SDS011;20989;52.566;13.346;2022-07-24T02:05:35;0.47;;;0.47;;
34775;SDS011;20989;52.566;13.346;2022-07-24T02:08:36;1.85;;;0.55;;
34775;SDS011;20989;52.566;13.346;2022-07-24T02:11:37;0.60;;;0.60;;
34775;SDS011;20989;52.566;13.346;2022-07-24T02:14:40;0.25;;;0.25;;
34775;SDS011;20989;52.566;13.346;2022-07-24T02:17:51;0.35;;;0.35;;
34775;SDS011;20989;52.566;13.346;2022-07-24T02:20:55;0.40;;;0.40;;
34775;SDS011;20989;52.566;13.346;2022-07-24T02:23:56;0.30;;;0.30;;
34775;SDS011;20989;52.566;13.346;2022-07-24T02:26:56;0.50;;;0.50;;
34775;SDS011;20989;52.566;13.346;2022-07-24T02:29:57;0.32;;;0.32;;
34775;SDS011;20989;52.566;13.346;2022-07-24T02:32:58;0.30;;;0.30;;
34775;SDS011;20989;52.566;13.346;2022-07-24T02:35:59;0.50;;;0.50;;
34775;SDS011;20989;52.566;13.346;2022-07-24T02:38:59;0.47;;;0.47;;
34775;SDS011;20989;52.566;13.346;2022-07-24T02:42:00;0.50;;;0.50;;
34775;SDS011;20989;52.566;13.346;2022-07-24T02:45:01;0.50;;;0.50;;
34775;SDS011;20989;52.566;13.346;2022-07-24T02:48:02;0.50;;;0.50;;
34775;SDS011;20989;52.566;13.346;2022-07-24T02:51:04;0.52;;;0.45;;
34775;SDS011;20989;52.566;13.346;2022-07-24T02:54:04;0.40;;;0.40;;
34775;SDS011;20989;52.566;13.346;2022-07-24T02:57:05;0.32;;;0.32;;
34775;SDS011;20989;52.566;13.346;2022-07-24T03:00:07;0.50;;;0.50;;
34775;SDS011;20989;52.566;13.346;2022-07-24T03:03:10;0.60;;;0.60;;
34775;SDS011;20989;52.566;13.346;2022-07-24T03:06:10;0.47;;;0.47;;
34775;SDS011;20989;52.566;13.346;2022-07-24T03:09:11;0.47;;;0.47;;
34775;SDS011;20989;52.566;13.346;2022-07-24T03:12:12;0.40;;;0.40;;
34775;SDS011;20989;52.566;13.346;2022-07-24T03:15:13;0.50;;;0.50;;
34775;SDS011;20989;52.566;13.346;2022-07-24T03:18:14;0.57;;;0.57;;
34775;SDS011;20989;52.566;13.346;2022-07-24T03:21:15;2.58;;;0.52;;
34775;SDS011;20989;52.566;13.346;2022-07-24T03:24:17;0.50;;;0.50;;
34775;SDS011;20989;52.566;13.346;2022-07-24T03:27:17;0.60;;;0.60;;
34775;SDS011;20989;52.566;13.346;2022-07-24T03:30:19;0.63;;;0.63;;
34775;SDS011;20989;52.566;13.346;2022-07-24T03:33:20;0.52;;;0.52;;
34775;SDS011;20989;52.566;13.346;2022-07-24T03:36:21;0.52;;;0.43;;
34775;SDS011;20989;52.566;13.346;2022-07-24T03:39:21;0.30;;;0.30;;
34775;SDS011;20989;52.566;13.346;2022-07-24T03:42:22;0.40;;;0.40;;
34775;SDS011;20989;52.566;13.346;2022-07-24T03:45:23;0.40;;;0.40;;
34775;SDS011;20989;52.566;13.346;2022-07-24T03:48:24;0.93;;;0.45;;
34775;SDS011;20989;52.566;13.346;2022-07-24T03:51:24;0.60;;;0.60;;
34775;SDS011;20989;52.566;13.346;2022-07-24T03:54:25;0.40;;;0.40;;
34775;SDS011;20989;52.566;13.346;2022-07-24T03:57:26;0.63;;;0.55;;
34775;SDS011;20989;52.566;13.346;2022-07-24T04:00:27;0.43;;;0.43;;
34775;SDS011;20989;52.566;13.346;2022-07-24T04:03:27;0.40;;;0.40;;
34775;SDS011;20989;52.566;13.346;2022-07-24T04:06:28;0.50;;;0.50;;
34775;SDS011;20989;52.566;13.346;2022-07-24T04:09:29;0.40;;;0.40;;
34775;SDS011;20989;52.566;13.346;2022-07-24T04:12:30;0.40;;;0.40;;
34775;SDS011;20989;52.566;13.346;2022-07-24T04:15:30;0.50;;;0.50;;
34775;SDS011;20989;52.566;13.346;2022-07-24T04:18:31;0.52;;;0.50;;
34775;SDS011;20989;52.566;13.346;2022-07-24T04:21:32;0.40;;;0.40;;
34775;SDS011;20989;52.566;13.346;2022-07-24T04:24:33;0.40;;;0.40;;
34775;SDS011;20989;52.566;13.346;2022-07-24T04:27:33;0.50;;;0.50;;
34775;SDS011;20989;52.566;13.346;2022-07-24T04:30:34;0.40;;;0.40;;
34775;SDS011;20989;52.566;13.346;2022-07-24T04:33:35;0.43;;;0.43;;
34775;SDS011;20989;52.566;13.346;2022-07-24T04:36:36;0.47;;;0.47;;
34775;SDS011;20989;52.566;13.346;2022-07-24T04:39:37;0.40;;;0.40;;
34775;SDS011;20989;52.566;13.346;2022-07-24T04:42:37;0.50;;;0.50;;
34775;SDS011;20989;52.566;13.346;2022-07-24T04:45:38;0.57;;;0.57;;
34775;SDS011;20989;52.566;13.346;2022-07-24T04:48:39;0.50;;;0.50;;
34775;SDS011;20989;52.566;13.346;2022-07-24T04:51:40;0.40;;;0.40;;
34775;SDS011;20989;52.566;13.346;2022-07-24T04:54:40;0.30;;;0.30;;
34775;SDS011;20989;52.566;13.346;2022-07-24T04:57:41;0.40;;;0.40;;
34775;SDS011;20989;52.566;13.346;2022-07-24T05:00:42;0.45;;;0.45;;
34775;SDS011;20989;52.566;13.346;2022-07-24T05:03:43;0.80;;;0.55;;
34775;SDS011;20989;52.566;13.346;2022-07-24T05:06:44;0.40;;;0.40;;
34775;SDS011;20989;52.566;13.346;2022-07-24T05:09:46;0.40;;;0.40;;
34775;SDS011;20989;52.566;13.346;2022-07-24T05:12:46;1.60;;;0.40;;
34775;SDS011;20989;52.566;13.346;2022-07-24T05:15:47;0.63;;;0.63;;
34775;SDS011;20989;52.566;13.346;2022-07-24T05:18:48;0.65;;;0.57;;
34775;SDS011;20989;52.566;13.346;2022-07-24T05:21:48;0.82;;;0.65;;
34775;SDS011;20989;52.566;13.346;2022-07-24T05:24:49;0.47;;;0.47;;
34775;SDS011;20989;52.566;13.346;2022-07-24T05:27:50;0.50;;;0.50;;
34775;SDS011;20989;52.566;13.346;2022-07-24T05:30:50;0.50;;;0.50;;
34775;SDS011;20989;52.566;13.346;2022-07-24T05:33:51;0.43;;;0.43;;
34775;SDS011;20989;52.566;13.346;2022-07-24T05:36:52;0.40;;;0.40;;
34775;SDS011;20989;52.566;13.346;2022-07-24T05:39:54;0.40;;;0.40;;
34775;SDS011;20989;52.566;13.346;2022-07-24T05:42:54;0.68;;;0.40;;
34775;SDS011;20989;52.566;13.346;2022-07-24T05:45:55;0.43;;;0.43;;
34775;SDS011;20989;52.566;13.346;2022-07-24T05:48:56;0.30;;;0.30;;
34775;SDS011;20989;52.566;13.346;2022-07-24T05:51:57;0.50;;;0.50;;
34775;SDS011;20989;52.566;13.346;2022-07-24T05:54:57;0.50;;;0.50;;
34775;SDS011;20989;52.566;13.346;2022-07-24T05:57:58;0.50;;;0.50;;
34775;SDS011;20989;52.566;13.346;2022-07-24T06:00:58;0.47;;;0.47;;
34775;SDS011;20989;52.566;13.346;2022-07-24T06:03:59;0.80;;;0.40;;
34775;SDS011;20989;52.566;13.346;2022-07-24T06:07:00;0.57;;;0.57;;
34775;SDS011;20989;52.566;13.346;2022-07-24T06:10:01;0.50;;;0.50;;
34775;SDS011;20989;52.566;13.346;2022-07-24T06:13:01;0.60;;;0.55;;
34775;SDS011;20989;52.566;13.346;2022-07-24T06:16:02;6.97;;;1.17;;
34775;SDS011;20989;52.566;13.346;2022-07-24T06:19:04;7.53;;;1.50;;
34775;SDS011;20989;52.566;13.346;2022-07-24T06:22:04;6.72;;;1.00;;
34775;SDS011;20989;52.566;13.346;2022-07-24T06:25:05;1.70;;;0.90;;
34775;SDS011;20989;52.566;13.346;2022-07-24T06:28:06;6.03;;;1.02;;
34775;SDS011;20989;52.566;13.346;2022-07-24T06:31:07;2.75;;;1.02;;
34775;SDS011;20989;52.566;13.346;2022-07-24T06:34:08;3.70;;;0.70;;
34775;SDS011;20989;52.566;13.346;2022-07-24T06:37:08;4.13;;;1.00;;
34775;SDS011;20989;52.566;13.346;2022-07-24T06:40:09;1.17;;;0.90;;
34775;SDS011;20989;52.566;13.346;2022-07-24T06:43:11;1.52;;;0.70;;
34775;SDS011;20989;52.566;13.346;2022-07-24T06:46:11;2.53;;;0.77;;
34775;SDS011;20989;52.566;13.346;2022-07-24T06:49:12;1.60;;;0.80;;
34775;SDS011;20989;52.566;13.346;2022-07-24T06:52:13;2.33;;;0.90;;
34775;SDS011;20989;52.566;13.346;2022-07-24T06:55:13;1.05;;;0.68;;
34775;SDS011;20989;52.566;13.346;2022-07-24T06:58:14;1.20;;;0.88;;
34775;SDS011;20989;52.566;13.346;2022-07-24T07:01:15;1.83;;;0.52;;
34775;SDS011;20989;52.566;13.346;2022-07-24T07:04:15;1.83;;;0.68;;
34775;SDS011;20989;52.566;13.346;2022-07-24T07:07:16;0.65;;;0.52;;
34775;SDS011;20989;52.566;13.346;2022-07-24T07:10:17;0.70;;;0.60;;
34775;SDS011;20989;52.566;13.346;2022-07-24T07:13:18;1.70;;;0.50;;
34775;SDS011;20989;52.566;13.346;2022-07-24T07:16:18;0.93;;;0.50;;
34775;SDS011;20989;52.566;13.346;2022-07-24T07:19:19;0.68;;;0.60;;
34775;SDS011;20989;52.566;13.346;2022-07-24T07:22:20;2.47;;;0.55;;
34775;SDS011;20989;52.566;13.346;2022-07-24T07:25:21;0.93;;;0.60;;
34775;SDS011;20989;52.566;13.346;2022-07-24T07:28:21;0.65;;;0.60;;
34775;SDS011;20989;52.566;13.346;2022-07-24T07:31:23;0.98;;;0.60;;
34775;SDS011;20989;52.566;13.346;2022-07-24T07:34:25;1.05;;;0.65;;
34775;SDS011;20989;52.566;13.346;2022-07-24T07:37:26;0.52;;;0.52;;
34775;SDS011;20989;52.566;13.346;2022-07-24T07:40:27;0.55;;;0.50;;
34775;SDS011;20989;52.566;13.346;2022-07-24T07:43:28;0.93;;;0.50;;
34775;SDS011;20989;52.566;13.346;2022-07-24T07:46:29;0.50;;;0.50;;
34775;SDS011;20989;52.566;13.346;2022-07-24T07:49:30;0.95;;;0.93;;
34775;SDS011;20989;52.566;13.346;2022-07-24T07:52:31;0.40;;;0.40;;
34775;SDS011;20989;52.566;13.346;2022-07-24T07:55:31;0.40;;;0.40;;
34775;SDS011;20989;52.566;13.346;2022-07-24T07:58:32;0.93;;;0.55;;
34775;SDS011;20989;52.566;13.346;2022-07-24T08:01:33;1.35;;;0.73;;
34775;SDS011;20989;52.566;13.346;2022-07-24T08:04:34;0.50;;;0.50;;
34775;SDS011;20989;52.566;13.346;2022-07-24T08:07:35;0.57;;;0.50;;
34775;SDS011;20989;52.566;13.346;2022-07-24T08:10:36;0.75;;;0.60;;
34775;SDS011;20989;52.566;13.346;2022-07-24T08:13:37;0.75;;;0.50;;
34775;SDS011;20989;52.566;13.346;2022-07-24T08:16:38;0.50;;;0.50;;
34775;SDS011;20989;52.566;13.346;2022-07-24T08:19:38;0.63;;;0.63;;
34775;SDS011;20989;52.566;13.346;2022-07-24T08:22:39;0.45;;;0.45;;
34775;SDS011;20989;52.566;13.346;2022-07-24T08:25:40;0.60;;;0.60;;
34775;SDS011;20989;52.566;13.346;2022-07-24T08:28:41;0.50;;;0.50;;
34775;SDS011;20989;52.566;13.346;2022-07-24T08:31:41;0.82;;;0.50;;
34775;SDS011;20989;52.566;13.346;2022-07-24T08:34:42;0.50;;;0.50;;
34775;SDS011;20989;52.566;13.346;2022-07-24T08:37:43;0.75;;;0.50;;
34775;SDS011;20989;52.566;13.346;2022-07-24T08:40:45;0.68;;;0.68;;
34775;SDS011;20989;52.566;13.346;2022-07-24T08:43:46;0.55;;;0.55;;
34775;SDS011;20989;52.566;13.346;2022-07-24T08:46:47;0.55;;;0.55;;
34775;SDS011;20989;52.566;13.346;2022-07-24T08:49:49;0.75;;;0.45;;
34775;SDS011;20989;52.566;13.346;2022-07-24T08:52:53;0.50;;;0.50;;
34775;SDS011;20989;52.566;13.346;2022-07-24T08:55:56;0.47;;;0.47;;
34775;SDS011;20989;52.566;13.346;2022-07-24T08:58:58;0.68;;;0.50;;
34775;SDS011;20989;52.566;13.346;2022-07-24T09:01:59;0.50;;;0.50;;
34775;SDS011;20989;52.566;13.346;2022-07-24T09:05:01;8.20;;;0.93;;
34775;SDS011;20989;52.566;13.346;2022-07-24T09:08:06;2.33;;;0.70;;
34775;SDS011;20989;52.566;13.346;2022-07-24T09:11:07;5.90;;;0.95;;
34775;SDS011;20989;52.566;13.346;2022-07-24T09:14:10;2.92;;;1.20;;
34775;SDS011;20989;52.566;13.346;2022-07-24T09:17:29;5.82;;;0.77;;
34775;SDS011;20989;52.566;13.346;2022-07-24T09:20:30;5.82;;;1.05;;
34775;SDS011;20989;52.566;13.346;2022-07-24T09:23:31;0.73;;;0.73;;
34775;SDS011;20989;52.566;13.346;2022-07-24T09:26:49;0.70;;;0.70;;
34775;SDS011;20989;52.566;13.346;2022-07-24T09:29:51;1.35;;;0.88;;
34775;SDS011;20989;52.566;13.346;2022-07-24T09:32:54;1.00;;;0.75;;
34775;SDS011;20989;52.566;13.346;2022-07-24T09:35:59;3.88;;;1.00;;
34775;SDS011;20989;52.566;13.346;2022-07-24T09:39:10;0.77;;;0.70;;
34775;SDS011;20989;52.566;13.346;2022-07-24T09:42:18;0.90;;;0.90;;
34775;SDS011;20989;52.566;13.346;2022-07-24T09:45:28;5.03;;;1.08;;
34775;SDS011;20989;52.566;13.346;2022-07-24T09:48:40;1.20;;;0.77;;
34775;SDS011;20989;52.566;13.346;2022-07-24T09:55:23;1.02;;;0.82;;
34775;SDS011;20989;52.566;13.346;2022-07-24T09:58:25;1.08;;;0.77;;
34775;SDS011;20989;52.566;13.346;2022-07-24T10:01:26;2.05;;;1.00;;
34775;SDS011;20989;52.566;13.346;2022-07-24T10:04:28;2.40;;;0.80;;
34775;SDS011;20989;52.566;13.346;2022-07-24T10:07:34;1.00;;;0.80;;
34775;SDS011;20989;52.566;13.346;2022-07-24T10:10:37;2.65;;;0.90;;
34775;SDS011;20989;52.566;13.346;2022-07-24T10:13:38;2.95;;;1.30;;
34775;SDS011;20989;52.566;13.346;2022-07-24T10:16:41;0.93;;;0.93;;
34775;SDS011;20989;52.566;13.346;2022-07-24T10:22:56;2.45;;;0.80;;
34775;SDS011;20989;52.566;13.346;2022-07-24T10:26:05;1.25;;;1.10;;
34775;SDS011;20989;52.566;13.346;2022-07-24T10:29:11;9.68;;;1.42;;
34775;SDS011;20989;52.566;13.346;2022-07-24T10:32:20;2.70;;;1.30;;
34775;SDS011;20989;52.566;13.346;2022-07-24T10:35:24;1.27;;;1.17;;
34775;SDS011;20989;52.566;13.346;2022-07-24T10:38:36;0.80;;;0.80;;
34775;SDS011;20989;52.566;13.346;2022-07-24T10:41:41;1.13;;;1.00;;
34775;SDS011;20989;52.566;13.346;2022-07-24T10:44:41;1.55;;;1.08;;
34775;SDS011;20989;52.566;13.346;2022-07-24T10:47:46;3.63;;;1.02;;
34775;SDS011;20989;52.566;13.346;2022-07-24T10:51:08;8.82;;;1.00;;
34775;SDS011;20989;52.566;13.346;2022-07-24T10:54:16;1.45;;;1.10;;
34775;SDS011;20989;52.566;13.346;2022-07-24T10:57:17;0.80;;;0.70;;
34775;SDS011;20989;52.566;13.346;2022-07-24T11:00:22;4.03;;;0.90;;
34775;SDS011;20989;52.566;13.346;2022-07-24T11:03:25;3.20;;;1.05;;
34775;SDS011;20989;52.566;13.346;2022-07-24T11:10:19;1.20;;;1.10;;
34775;SDS011;20989;52.566;13.346;2022-07-24T11:16:32;0.85;;;0.85;;
34775;SDS011;20989;52.566;13.346;2022-07-24T11:19:34;1.40;;;0.85;;
34775;SDS011;20989;52.566;13.346;2022-07-24T11:22:37;1.48;;;1.25;;
34775;SDS011;20989;52.566;13.346;2022-07-24T11:25:39;1.83;;;1.10;;
34775;SDS011;20989;52.566;13.346;2022-07-24T11:28:40;1.20;;;0.88;;
34775;SDS011;20989;52.566;13.346;2022-07-24T11:31:45;0.82;;;0.70;;
34775;SDS011;20989;52.566;13.346;2022-07-24T11:34:50;1.55;;;1.00;;
34775;SDS011;20989;52.566;13.346;2022-07-24T11:37:52;0.77;;;0.77;;
34775;SDS011;20989;52.566;13.346;2022-07-24T11:41:03;1.90;;;0.82;;
34775;SDS011;20989;52.566;13.346;2022-07-24T11:44:05;1.27;;;1.15;;
34775;SDS011;20989;52.566;13.346;2022-07-24T11:47:07;1.42;;;0.90;;
34775;SDS011;20989;52.566;13.346;2022-07-24T11:50:23;1.05;;;0.90;;
34775;SDS011;20989;52.566;13.346;2022-07-24T11:53:25;4.75;;;0.82;;
34775;SDS011;20989;52.566;13.346;2022-07-24T11:56:25;1.40;;;0.88;;
34775;SDS011;20989;52.566;13.346;2022-07-24T11:59:32;1.27;;;1.17;;
34775;SDS011;20989;52.566;13.346;2022-07-24T12:02:33;1.13;;;0.80;;
34775;SDS011;20989;52.566;13.346;2022-07-24T12:05:34;3.35;;;1.02;;
34775;SDS011;20989;52.566;13.346;2022-07-24T12:08:40;0.88;;;0.80;;
34775;SDS011;20989;52.566;13.346;2022-07-24T12:11:42;2.92;;;0.80;;
34775;SDS011;20989;52.566;13.346;2022-07-24T12:14:42;4.35;;;1.20;;
34775;SDS011;20989;52.566;13.346;2022-07-24T12:18:00;1.52;;;0.88;;
34775;SDS011;20989;52.566;13.346;2022-07-24T12:21:06;1.20;;;0.95;;
34775;SDS011;20989;52.566;13.346;2022-07-24T12:24:09;0.95;;;0.80;;
34775;SDS011;20989;52.566;13.346;2022-07-24T12:27:11;1.17;;;0.90;;
34775;SDS011;20989;52.566;13.346;2022-07-24T12:30:19;1.23;;;1.02;;
34775;SDS011;20989;52.566;13.346;2022-07-24T12:33:26;0.82;;;0.82;;
34775;SDS011;20989;52.566;13.346;2022-07-24T12:36:29;1.00;;;0.80;;
34775;SDS011;20989;52.566;13.346;2022-07-24T12:39:30;0.90;;;0.90;;
34775;SDS011;20989;52.566;13.346;2022-07-24T12:42:31;0.75;;;0.70;;
34775;SDS011;20989;52.566;13.346;2022-07-24T12:45:32;1.20;;;0.75;;
34775;SDS011;20989;52.566;13.346;2022-07-24T12:48:33;0.88;;;0.88;;
34775;SDS011;20989;52.566;13.346;2022-07-24T12:51:44;0.80;;;0.80;;
34775;SDS011;20989;52.566;13.346;2022-07-24T12:54:52;1.50;;;1.10;;
34775;SDS011;20989;52.566;13.346;2022-07-24T12:57:56;0.60;;;0.60;;
34775;SDS011;20989;52.566;13.346;2022-07-24T13:01:01;1.30;;;0.88;;
34775;SDS011;20989;52.566;13.346;2022-07-24T13:04:02;1.85;;;1.10;;
34775;SDS011;20989;52.566;13.346;2022-07-24T13:07:03;0.85;;;0.75;;
34775;SDS011;20989;52.566;13.346;2022-07-24T13:10:07;0.80;;;0.80;;
34775;SDS011;20989;52.566;13.346;2022-07-24T13:13:08;1.08;;;0.98;;
34775;SDS011;20989;52.566;13.346;2022-07-24T13:16:09;2.53;;;0.73;;
34775;SDS011;20989;52.566;13.346;2022-07-24T13:19:10;1.48;;;1.02;;
34775;SDS011;20989;52.566;13.346;2022-07-24T13:22:11;0.98;;;0.70;;
34775;SDS011;20989;52.566;13.346;2022-07-24T13:25:12;2.42;;;1.05;;
34775;SDS011;20989;52.566;13.346;2022-07-24T13:28:13;3.10;;;0.90;;
34775;SDS011;20989;52.566;13.346;2022-07-24T13:31:14;0.80;;;0.80;;
34775;SDS011;20989;52.566;13.346;2022-07-24T13:34:14;1.00;;;0.95;;
34775;SDS011;20989;52.566;13.346;2022-07-24T13:37:16;3.75;;;1.33;;
34775;SDS011;20989;52.566;13.346;2022-07-24T13:40:18;3.53;;;1.10;;
34775;SDS011;20989;52.566;13.346;2022-07-24T13:43:19;1.25;;;1.10;;
34775;SDS011;20989;52.566;13.346;2022-07-24T13:46:20;2.15;;;0.85;;
34775;SDS011;20989;52.566;13.346;2022-07-24T13:49:21;1.40;;;1.10;;
34775;SDS011;20989;52.566;13.346;2022-07-24T13:52:21;9.15;;;1.10;;
34775;SDS011;20989;52.566;13.346;2022-07-24T13:55:22;1.73;;;1.30;;
34775;SDS011;20989;52.566;13.346;2022-07-24T13:58:23;3.38;;;1.00;;
34775;SDS011;20989;52.566;13.346;2022-07-24T14:01:24;0.90;;;0.80;;
34775;SDS011;20989;52.566;13.346;2022-07-24T14:04:25;5.53;;;1.10;;
34775;SDS011;20989;52.566;13.346;2022-07-24T14:07:25;1.55;;;1.10;;
34775;SDS011;20989;52.566;13.346;2022-07-24T14:10:26;0.88;;;0.80;;
34775;SDS011;20989;52.566;13.346;2022-07-24T14:13:27;2.50;;;0.70;;
34775;SDS011;20989;52.566;13.346;2022-07-24T14:16:28;1.83;;;0.80;;
34775;SDS011;20989;52.566;13.346;2022-07-24T14:19:29;0.95;;;0.85;;
34775;SDS011;20989;52.566;13.346;2022-07-24T14:22:30;1.83;;;1.45;;
34775;SDS011;20989;52.566;13.346;2022-07-24T14:25:31;0.98;;;0.88;;
34775;SDS011;20989;52.566;13.346;2022-07-24T14:28:32;2.15;;;0.80;;
34775;SDS011;20989;52.566;13.346;2022-07-24T14:31:33;2.45;;;1.00;;
34775;SDS011;20989;52.566;13.346;2022-07-24T14:34:33;1.35;;;0.65;;
34775;SDS011;20989;52.566;13.346;2022-07-24T14:37:35;1.20;;;0.82;;
34775;SDS011;20989;52.566;13.346;2022-07-24T14:40:36;2.75;;;0.80;;
34775;SDS011;20989;52.566;13.346;2022-07-24T14:43:37;1.20;;;0.75;;
34775;SDS011;20989;52.566;13.346;2022-07-24T14:46:38;10.77;;;1.20;;
34775;SDS011;20989;52.566;13.346;2022-07-24T14:49:40;1.75;;;0.80;;
34775;SDS011;20989;52.566;13.346;2022-07-24T14:52:41;2.13;;;1.00;;
34775;SDS011;20989;52.566;13.346;2022-07-24T14:55:41;1.90;;;1.23;;
34775;SDS011;20989;52.566;13.346;2022-07-24T14:58:42;5.60;;;1.00;;
34775;SDS011;20989;52.566;13.346;2022-07-24T15:01:43;3.22;;;1.00;;
34775;SDS011;20989;52.566;13.346;2022-07-24T15:04:43;2.10;;;0.68;;
34775;SDS011;20989;52.566;13.346;2022-07-24T15:07:44;1.40;;;1.10;;
34775;SDS011;20989;52.566;13.346;2022-07-24T15:10:45;0.82;;;0.80;;
34775;SDS011;20989;52.566;13.346;2022-07-24T15:13:45;1.45;;;0.90;;
34775;SDS011;20989;52.566;13.346;2022-07-24T15:16:46;1.75;;;1.10;;
34775;SDS011;20989;52.566;13.346;2022-07-24T15:19:47;3.80;;;1.05;;
34775;SDS011;20989;52.566;13.346;2022-07-24T15:22:48;2.80;;;0.73;;
34775;SDS011;20989;52.566;13.346;2022-07-24T15:25:48;1.50;;;1.20;;
34775;SDS011;20989;52.566;13.346;2022-07-24T15:28:49;4.00;;;0.98;;
34775;SDS011;20989;52.566;13.346;2022-07-24T15:31:49;1.10;;;0.90;;
34775;SDS011;20989;52.566;13.346;2022-07-24T15:34:50;0.70;;;0.70;;
34775;SDS011;20989;52.566;13.346;2022-07-24T15:37:51;4.43;;;0.85;;
34775;SDS011;20989;52.566;13.346;2022-07-24T15:40:52;3.15;;;0.73;;
34775;SDS011;20989;52.566;13.346;2022-07-24T15:43:52;1.15;;;0.65;;
34775;SDS011;20989;52.566;13.346;2022-07-24T15:46:53;0.70;;;0.70;;
34775;SDS011;20989;52.566;13.346;2022-07-24T15:49:54;1.75;;;0.70;;
34775;SDS011;20989;52.566;13.346;2022-07-24T15:52:54;0.75;;;0.70;;
34775;SDS011;20989;52.566;13.346;2022-07-24T15:55:55;0.70;;;0.70;;
34775;SDS011;20989;52.566;13.346;2022-07-24T15:58:56;1.05;;;0.90;;
34775;SDS011;20989;52.566;13.346;2022-07-24T16:01:57;0.77;;;0.77;;
34775;SDS011;20989;52.566;13.346;2022-07-24T16:04:58;1.00;;;0.70;;
34775;SDS011;20989;52.566;13.346;2022-07-24T16:07:59;1.67;;;0.90;;
34775;SDS011;20989;52.566;13.346;2022-07-24T16:11:00;0.60;;;0.60;;
34775;SDS011;20989;52.566;13.346;2022-07-24T16:14:01;1.15;;;1.05;;
34775;SDS011;20989;52.566;13.346;2022-07-24T16:17:01;0.70;;;0.70;;
34775;SDS011;20989;52.566;13.346;2022-07-24T16:20:02;1.83;;;0.90;;
34775;SDS011;20989;52.566;13.346;2022-07-24T16:23:04;0.57;;;0.57;;
34775;SDS011;20989;52.566;13.346;2022-07-24T16:26:04;0.65;;;0.65;;
34775;SDS011;20989;52.566;13.346;2022-07-24T16:29:06;0.73;;;0.73;;
34775;SDS011;20989;52.566;13.346;2022-07-24T16:32:07;0.45;;;0.45;;
34775;SDS011;20989;52.566;13.346;2022-07-24T16:35:08;0.50;;;0.50;;
34775;SDS011;20989;52.566;13.346;2022-07-24T16:38:09;0.70;;;0.63;;
34775;SDS011;20989;52.566;13.346;2022-07-24T16:41:09;4.90;;;0.70;;
34775;SDS011;20989;52.566;13.346;2022-07-24T16:44:10;0.93;;;0.77;;
34775;SDS011;20989;52.566;13.346;2022-07-24T16:47:11;1.10;;;0.77;;
34775;SDS011;20989;52.566;13.346;2022-07-24T16:50:11;1.33;;;0.70;;
34775;SDS011;20989;52.566;13.346;2022-07-24T16:53:12;0.82;;;0.70;;
34775;SDS011;20989;52.566;13.346;2022-07-24T16:56:13;3.55;;;0.60;;
34775;SDS011;20989;52.566;13.346;2022-07-24T16:59:14;0.63;;;0.50;;
34775;SDS011;20989;52.566;13.346;2022-07-24T17:02:16;0.60;;;0.60;;
34775;SDS011;20989;52.566;13.346;2022-07-24T17:05:17;3.60;;;0.68;;
34775;SDS011;20989;52.566;13.346;2022-07-24T17:08:18;1.42;;;0.47;;
34775;SDS011;20989;52.566;13.346;2022-07-24T17:11:19;0.68;;;0.68;;
34775;SDS011;20989;52.566;13.346;2022-07-24T17:14:20;2.42;;;0.68;;
34775;SDS011;20989;52.566;13.346;2022-07-24T17:17:21;3.42;;;0.52;;
34775;SDS011;20989;52.566;13.346;2022-07-24T17:20:24;0.98;;;0.88;;
34775;SDS011;20989;52.566;13.346;2022-07-24T17:23:29;7.07;;;1.02;;
34775;SDS011;20989;52.566;13.346;2022-07-24T17:26:30;1.67;;;0.50;;
34775;SDS011;20989;52.566;13.346;2022-07-24T17:29:30;1.48;;;0.47;;
34775;SDS011;20989;52.566;13.346;2022-07-24T17:32:31;2.35;;;0.80;;
34775;SDS011;20989;52.566;13.346;2022-07-24T17:35:32;7.45;;;0.82;;
34775;SDS011;20989;52.566;13.346;2022-07-24T17:38:32;3.63;;;0.50;;
34775;SDS011;20989;52.566;13.346;2022-07-24T17:41:33;2.00;;;0.70;;
34775;SDS011;20989;52.566;13.346;2022-07-24T17:44:34;1.52;;;0.60;;
34775;SDS011;20989;52.566;13.346;2022-07-24T17:47:35;2.58;;;0.60;;
34775;SDS011;20989;52.566;13.346;2022-07-24T17:50:37;1.23;;;0.68;;
34775;SDS011;20989;52.566;13.346;2022-07-24T17:53:37;7.65;;;0.80;;
34775;SDS011;20989;52.566;13.346;2022-07-24T17:56:38;25.30;;;2.60;;
34775;SDS011;20989;52.566;13.346;2022-07-24T17:59:39;19.30;;;1.48;;
34775;SDS011;20989;52.566;13.346;2022-07-24T18:02:40;15.25;;;1.65;;
34775;SDS011;20989;52.566;13.346;2022-07-24T18:05:40;11.43;;;1.30;;
34775;SDS011;20989;52.566;13.346;2022-07-24T18:08:41;7.18;;;0.95;;
34775;SDS011;20989;52.566;13.346;2022-07-24T18:11:42;12.65;;;1.77;;
34775;SDS011;20989;52.566;13.346;2022-07-24T18:14:43;10.75;;;0.88;;